createdAt,value
2023-02-05T00:00:10.313Z,21.99
2023-02-05T00:01:10.280Z,21.98
2023-02-05T00:02:10.347Z,22.02
2023-02-05T00:03:10.280Z,22.02
2023-02-05T00:04:10.259Z,22.03
2023-02-05T00:05:10.267Z,22.01
2023-02-05T00:06:10.209Z,22.00
2023-02-05T00:07:10.197Z,22.04
2023-02-05T00:08:10.195Z,22.02
2023-02-05T00:09:10.159Z,22.03
2023-02-05T00:10:10.141Z,22.03
2023-02-05T00:11:10.173Z,22.02
2023-02-05T00:12:10.103Z,22.01
2023-02-05T00:13:10.093Z,21.99
2023-02-05T00:14:10.073Z,22.02
2023-02-05T00:16:10.108Z,21.99
2023-02-05T00:50:09.517Z,22.16
2023-02-05T01:41:08.738Z,22.22
2023-02-05T01:43:08.718Z,22.21
2023-02-05T01:44:08.722Z,22.24
2023-02-05T01:45:08.689Z,22.20
2023-02-05T01:46:08.692Z,22.24
2023-02-05T01:47:08.678Z,22.22
2023-02-05T01:49:08.632Z,22.22
2023-02-05T01:50:08.634Z,22.21
2023-02-05T01:51:08.592Z,22.22
2023-02-05T01:52:08.603Z,22.22
2023-02-05T01:53:09.073Z,22.21
2023-02-05T01:54:08.658Z,22.23
2023-02-05T01:55:08.645Z,22.24
2023-02-05T01:56:08.536Z,22.26
2023-02-05T01:57:08.535Z,22.24
2023-02-05T01:58:08.530Z,22.22
2023-02-05T01:59:09.479Z,22.22
2023-02-05T02:00:08.480Z,22.22
2023-02-05T02:01:08.473Z,22.21
2023-02-05T02:02:08.484Z,22.22
2023-02-05T02:03:08.459Z,22.21
2023-02-05T02:04:08.479Z,22.22
2023-02-05T02:05:08.465Z,22.21
2023-02-05T02:06:08.442Z,22.21
2023-02-05T02:07:09.828Z,22.20
2023-02-05T02:08:08.423Z,22.22
2023-02-05T02:09:08.387Z,22.21
2023-02-05T02:10:08.386Z,22.22
2023-02-05T02:11:08.413Z,22.21
2023-02-05T02:12:08.373Z,22.22
2023-02-05T02:13:08.357Z,22.20
2023-02-05T02:14:08.324Z,22.20
2023-02-05T02:15:08.326Z,22.17
2023-02-05T02:16:08.345Z,22.20
2023-02-05T02:17:08.289Z,22.22
2023-02-05T02:18:08.306Z,22.20
2023-02-05T02:19:08.289Z,22.18
2023-02-05T02:20:08.261Z,22.18
2023-02-05T02:21:08.267Z,22.18
2023-02-05T02:22:08.237Z,22.18
2023-02-05T02:23:08.241Z,22.20
2023-02-05T02:24:08.221Z,22.17
2023-02-05T02:25:08.250Z,22.19
2023-02-05T02:26:08.203Z,22.19
2023-02-05T02:27:08.193Z,22.17
2023-02-05T02:28:08.277Z,22.16
2023-02-05T02:29:08.180Z,22.15
2023-02-05T02:30:08.168Z,22.16
2023-02-05T02:31:08.155Z,22.14
2023-02-05T02:32:08.118Z,22.16
2023-02-05T02:33:08.147Z,22.16
2023-02-05T02:34:08.154Z,22.14
2023-02-05T02:35:08.133Z,22.19
2023-02-05T02:36:08.094Z,22.17
2023-02-05T02:37:08.118Z,22.16
2023-02-05T02:38:08.130Z,22.16
2023-02-05T02:39:08.062Z,22.14
2023-02-05T02:40:08.044Z,22.14
2023-02-05T02:41:08.037Z,22.17
2023-02-05T02:42:08.027Z,22.16
2023-02-05T02:43:08.023Z,22.18
2023-02-05T02:44:07.988Z,22.18
2023-02-05T02:45:07.964Z,22.14
2023-02-05T02:46:07.975Z,22.14
2023-02-05T02:47:07.956Z,22.14
2023-02-05T02:48:08.586Z,22.15
2023-02-05T02:49:07.944Z,22.15
2023-02-05T02:50:07.906Z,22.15
2023-02-05T02:51:07.882Z,22.15
2023-02-05T02:52:07.878Z,22.15
2023-02-05T02:53:07.878Z,22.14
2023-02-05T02:54:07.874Z,22.14
2023-02-05T02:55:07.913Z,22.13
2023-02-05T02:57:07.822Z,22.09
2023-02-05T02:58:07.852Z,22.08
2023-02-05T03:53:10.118Z,22.45
2023-02-05T11:07:01.538Z,21.19
2023-02-05T11:08:01.569Z,21.20
2023-02-05T11:09:01.509Z,21.22
2023-02-05T11:10:01.474Z,21.21
2023-02-05T11:11:01.482Z,21.19
2023-02-05T11:12:01.454Z,21.18
2023-02-05T11:13:01.457Z,21.16
2023-02-05T11:15:01.414Z,21.16
2023-02-05T11:16:01.474Z,21.15
2023-02-05T11:17:01.353Z,21.17
2023-02-05T11:18:01.357Z,21.16
2023-02-05T11:20:01.321Z,21.15
2023-02-05T11:21:01.298Z,21.13
2023-02-05T11:22:01.282Z,21.15
2023-02-05T11:23:01.261Z,21.14
2023-02-05T11:24:01.249Z,21.13
2023-02-05T11:25:01.229Z,21.13
2023-02-05T11:26:01.214Z,21.14
2023-02-05T11:27:01.208Z,21.16
2023-02-05T11:28:01.222Z,21.14
2023-02-05T11:29:01.157Z,21.16
2023-02-05T11:30:01.140Z,21.14
2023-02-05T11:31:01.443Z,21.13
2023-02-05T11:32:01.311Z,21.15
2023-02-05T11:33:01.093Z,21.14
2023-02-05T11:34:01.085Z,21.13
2023-02-05T11:35:01.088Z,21.13
2023-02-05T11:36:01.036Z,21.14
2023-02-05T11:37:01.000Z,21.11
2023-02-05T11:38:01.005Z,21.12
2023-02-05T11:39:03.784Z,21.10
2023-02-05T11:40:00.963Z,21.10
2023-02-05T11:41:00.946Z,21.08
2023-02-05T11:42:00.902Z,21.11
2023-02-05T11:43:00.889Z,21.09
2023-02-05T11:45:00.847Z,21.08
2023-02-05T11:46:00.810Z,21.08
2023-02-05T11:47:00.799Z,21.10
2023-02-05T11:48:00.769Z,21.10
2023-02-05T11:49:00.783Z,21.08
2023-02-05T11:50:00.786Z,21.09
2023-02-05T11:51:00.712Z,21.06
2023-02-05T11:52:00.680Z,21.09
2023-02-05T11:54:00.758Z,21.06
2023-02-05T11:57:00.585Z,21.05
2023-02-05T11:58:00.587Z,21.04
2023-02-05T11:59:00.570Z,21.07
2023-02-05T12:00:00.607Z,21.06
2023-02-05T12:01:00.556Z,21.06
2023-02-05T12:02:00.571Z,21.03
2023-02-05T12:03:00.540Z,21.05
2023-02-05T12:04:00.460Z,21.05
2023-02-05T12:05:00.442Z,21.05
2023-02-05T12:06:00.472Z,21.03
2023-02-05T12:07:00.403Z,21.04
2023-02-05T12:08:00.384Z,21.01
2023-02-05T12:09:00.390Z,21.04
2023-02-05T12:11:00.333Z,21.01
2023-02-05T12:12:00.340Z,21.01
2023-02-05T12:13:00.305Z,20.99
2023-02-05T12:14:00.323Z,21.00
2023-02-05T12:15:00.257Z,21.00
2023-02-05T12:16:00.278Z,20.98
2023-02-05T12:17:00.232Z,20.98
2023-02-05T12:18:00.207Z,20.98
2023-02-05T12:19:00.297Z,21.00
2023-02-05T12:20:00.180Z,21.00
2023-02-05T12:21:00.154Z,20.99
2023-02-05T12:22:00.163Z,21.01
2023-02-05T12:23:00.139Z,21.00
2023-02-05T12:24:00.219Z,20.99
2023-02-05T12:25:00.130Z,20.98
2023-02-05T12:26:00.118Z,20.96
2023-02-05T12:27:00.074Z,20.97
2023-02-05T12:28:00.168Z,20.98
2023-02-05T12:29:00.042Z,20.97
2023-02-05T12:30:00.014Z,20.95
2023-02-05T12:32:00.055Z,20.95
2023-02-05T12:32:59.961Z,20.96
2023-02-05T12:33:59.936Z,20.92
2023-02-05T12:34:59.935Z,20.93
2023-02-05T12:35:59.947Z,20.94
2023-02-05T12:37:00.066Z,20.92
2023-02-05T12:37:59.899Z,20.91
2023-02-05T12:39:01.413Z,20.93
2023-02-05T12:39:59.968Z,20.95
2023-02-05T12:40:59.806Z,20.93
2023-02-05T12:41:59.792Z,20.96
2023-02-05T12:42:59.928Z,20.94
2023-02-05T12:43:59.725Z,20.91
2023-02-05T12:44:59.730Z,20.94
2023-02-05T12:47:00.313Z,20.95
2023-02-05T12:47:59.637Z,20.97
2023-02-05T12:48:59.645Z,20.96
2023-02-05T12:49:59.629Z,20.99
2023-02-05T12:50:59.629Z,20.99
2023-02-05T12:51:59.571Z,20.99
2023-02-05T12:52:59.546Z,21.00
2023-02-05T12:53:59.545Z,20.97
2023-02-05T12:54:59.548Z,20.99
2023-02-05T12:55:59.505Z,20.99
2023-02-05T12:56:59.490Z,20.99
2023-02-05T12:57:59.470Z,21.02
2023-02-05T12:59:59.439Z,21.00
2023-02-05T13:00:59.456Z,20.98
2023-02-05T13:01:59.391Z,20.99
2023-02-05T13:02:59.388Z,20.97
2023-02-05T13:04:01.269Z,20.96
2023-02-05T13:04:59.377Z,20.95
2023-02-05T13:05:59.332Z,20.94
2023-02-05T13:06:59.322Z,20.93
2023-02-05T13:07:59.286Z,20.94
2023-02-05T13:08:59.267Z,20.92
2023-02-05T13:10:01.212Z,20.92
2023-02-05T13:10:59.240Z,20.93
2023-02-05T13:11:59.236Z,20.92
2023-02-05T13:12:59.197Z,20.91
2023-02-05T13:13:59.195Z,20.93
2023-02-05T13:14:59.169Z,20.93
2023-02-05T13:15:59.180Z,20.92
2023-02-05T13:16:59.110Z,20.91
2023-02-05T13:17:59.126Z,20.92
2023-02-05T13:18:59.071Z,20.92
2023-02-05T13:19:59.059Z,20.92
2023-02-05T13:20:59.036Z,20.92
2023-02-05T13:21:59.060Z,20.92
2023-02-05T13:23:58.992Z,20.92
2023-02-05T13:24:59.834Z,20.92
2023-02-05T13:25:58.985Z,20.94
2023-02-05T13:26:58.925Z,20.93
2023-02-05T13:27:58.941Z,20.91
2023-02-05T13:28:58.890Z,20.92
2023-02-05T13:29:58.853Z,20.92
2023-02-05T13:30:58.914Z,20.92
2023-02-05T13:32:58.803Z,20.94
2023-02-05T13:33:58.785Z,20.92
2023-02-05T13:34:58.756Z,20.92
2023-02-05T13:35:58.721Z,20.91
2023-02-05T13:36:58.698Z,20.93
2023-02-05T13:37:58.696Z,20.93
2023-02-05T13:38:58.686Z,20.92
2023-02-05T13:40:58.635Z,20.91
2023-02-05T13:41:58.623Z,20.91
2023-02-05T13:42:58.599Z,20.90
2023-02-05T13:43:58.569Z,20.89
2023-02-05T13:44:58.533Z,20.89
2023-02-05T13:45:58.603Z,20.89
2023-02-05T13:46:58.494Z,20.88
2023-02-05T13:47:58.501Z,20.88
2023-02-05T13:48:58.465Z,20.89
2023-02-05T13:49:58.414Z,20.89
2023-02-05T13:50:58.412Z,20.90
2023-02-05T13:51:58.365Z,20.91
2023-02-05T13:52:58.340Z,20.91
2023-02-05T13:53:58.332Z,20.92
2023-02-05T13:54:58.315Z,20.92
2023-02-05T13:55:58.283Z,20.90
2023-02-05T13:56:58.247Z,20.92
2023-02-05T13:57:58.220Z,20.94
2023-02-05T13:58:58.217Z,20.92
2023-02-05T13:59:58.210Z,20.92
2023-02-05T14:00:58.216Z,20.92
2023-02-05T14:01:58.268Z,20.92
2023-02-05T14:02:58.099Z,20.91
2023-02-05T14:03:58.085Z,20.89
2023-02-05T14:04:58.056Z,20.89
2023-02-05T14:05:58.057Z,20.89
2023-02-05T14:06:58.006Z,20.91
2023-02-05T14:07:57.995Z,20.90
2023-02-05T14:08:57.959Z,20.90
2023-02-05T14:09:57.937Z,20.89
2023-02-05T14:10:57.942Z,20.91
2023-02-05T14:11:57.920Z,20.90
2023-02-05T14:12:57.917Z,20.89
2023-02-05T14:13:57.856Z,20.88
2023-02-05T14:14:58.390Z,20.89
2023-02-05T14:17:58.359Z,20.91
2023-02-05T14:18:58.353Z,20.88
2023-02-05T14:20:58.352Z,20.88
2023-02-05T14:23:57.930Z,20.91
2023-02-05T14:31:58.352Z,20.89
2023-02-05T14:56:57.859Z,20.87
2023-02-05T15:29:57.940Z,20.86
2023-02-05T18:08:58.776Z,20.89
2023-02-05T20:20:51.426Z,21.09
2023-02-05T20:42:51.130Z,21.10
2023-02-05T20:43:51.099Z,21.12
2023-02-05T20:44:51.071Z,21.12
2023-02-05T20:46:51.070Z,21.09
2023-02-05T20:47:51.056Z,21.09
2023-02-05T20:48:51.018Z,21.12
2023-02-05T20:49:50.983Z,21.10
2023-02-05T20:50:50.979Z,21.11
2023-02-05T20:51:50.982Z,21.12
2023-02-05T20:52:51.009Z,21.11
2023-02-05T20:53:50.938Z,21.09
2023-02-05T20:54:50.912Z,21.10
2023-02-05T20:55:50.924Z,21.11
2023-02-05T20:56:50.902Z,21.13
2023-02-05T20:57:50.893Z,21.16
2023-02-05T20:58:50.865Z,21.14
2023-02-05T20:59:50.861Z,21.13
2023-02-05T21:00:50.895Z,21.15
2023-02-05T21:01:50.826Z,21.13
2023-02-05T21:02:50.823Z,21.13
2023-02-05T21:03:50.829Z,21.13
2023-02-05T21:04:52.555Z,21.13
2023-02-05T21:05:50.792Z,21.14
2023-02-05T21:06:50.787Z,21.14
2023-02-05T21:07:50.776Z,21.15
2023-02-05T21:09:50.729Z,21.15
2023-02-05T21:10:50.736Z,21.18
2023-02-05T21:11:50.709Z,21.18
2023-02-05T21:12:50.706Z,21.19
2023-02-05T21:13:50.710Z,21.17
2023-02-05T21:14:50.684Z,21.19
2023-02-05T21:15:50.685Z,21.17
2023-02-05T21:16:50.641Z,21.18
2023-02-05T21:17:50.617Z,21.18
2023-02-05T21:18:50.622Z,21.19
2023-02-05T21:19:50.587Z,21.15
2023-02-05T21:20:50.585Z,21.21
2023-02-05T21:21:50.559Z,21.20
2023-02-05T21:22:50.528Z,21.18
2023-02-05T21:23:50.516Z,21.19
2023-02-05T21:24:50.523Z,21.17
2023-02-05T21:25:50.482Z,21.18
2023-02-05T21:26:50.505Z,21.16
2023-02-05T21:27:50.514Z,21.19
2023-02-05T21:28:50.456Z,21.17
2023-02-05T21:29:50.431Z,21.17
2023-02-05T21:31:50.424Z,21.15
2023-02-05T21:32:50.407Z,21.15
2023-02-05T21:33:50.398Z,21.13
2023-02-05T21:34:50.386Z,21.14
2023-02-05T21:35:50.370Z,21.16
2023-02-05T21:36:50.365Z,21.15
2023-02-05T21:37:50.359Z,21.17
2023-02-05T21:38:50.355Z,21.18
2023-02-05T21:39:52.725Z,21.16
2023-02-05T21:40:50.417Z,21.18
2023-02-05T21:41:50.443Z,21.15
2023-02-05T21:42:50.383Z,21.15
2023-02-05T21:43:50.390Z,21.19
2023-02-05T21:44:50.346Z,21.17
2023-02-05T21:45:50.380Z,21.15
2023-02-05T21:46:50.335Z,21.17
2023-02-05T21:47:50.312Z,21.17
2023-02-05T21:48:50.327Z,21.17
2023-02-05T21:49:50.324Z,21.17
2023-02-05T21:50:50.331Z,21.15
2023-02-05T21:51:50.327Z,21.17
2023-02-05T21:52:50.258Z,21.15
2023-02-05T21:53:50.249Z,21.17
2023-02-05T21:54:50.233Z,21.14
2023-02-05T21:55:50.217Z,21.16
2023-02-05T21:56:50.226Z,21.15
2023-02-05T21:57:50.207Z,21.16
2023-02-05T21:58:50.194Z,21.17
2023-02-05T21:59:50.176Z,21.19
2023-02-05T22:00:50.188Z,21.19
2023-02-05T22:01:50.154Z,21.18
2023-02-05T22:02:50.117Z,21.17
2023-02-05T22:03:50.116Z,21.20
2023-02-05T22:04:50.110Z,21.19
2023-02-05T22:05:50.077Z,21.21
2023-02-05T22:06:50.074Z,21.21
2023-02-05T22:07:50.045Z,21.20
2023-02-05T22:08:50.069Z,21.21
2023-02-05T22:09:50.038Z,21.21
2023-02-05T22:10:50.008Z,21.19
2023-02-05T22:11:50.014Z,21.21
2023-02-05T22:12:49.978Z,21.20
2023-02-05T22:13:49.998Z,21.19
2023-02-05T22:14:49.966Z,21.20
2023-02-05T22:15:49.954Z,21.19
2023-02-05T22:16:49.964Z,21.20
2023-02-05T22:17:49.926Z,21.19
2023-02-05T22:18:49.914Z,21.20
2023-02-05T22:19:49.920Z,21.19
2023-02-05T22:20:49.892Z,21.19
2023-02-05T22:21:49.868Z,21.21
2023-02-05T22:22:49.904Z,21.21
2023-02-05T22:23:49.940Z,21.20
2023-02-05T22:24:49.919Z,21.19
2023-02-05T22:25:49.835Z,21.19
2023-02-05T22:26:49.794Z,21.18
2023-02-05T22:27:49.820Z,21.18
2023-02-05T22:28:49.779Z,21.15
2023-02-05T22:29:49.760Z,21.19
2023-02-05T22:30:49.831Z,21.16
2023-02-05T22:31:50.593Z,21.17
2023-02-05T22:34:50.039Z,21.14
2023-02-05T22:36:49.718Z,21.19
2023-02-05T22:37:49.792Z,21.20
2023-02-05T22:38:49.822Z,21.20
2023-02-05T22:39:49.708Z,21.19
2023-02-05T22:40:49.693Z,21.18
2023-02-05T22:41:49.568Z,21.17
2023-02-05T22:42:49.593Z,21.12
2023-02-05T22:43:49.799Z,21.14
2023-02-05T22:44:49.529Z,21.15
2023-02-05T22:45:49.508Z,21.16
2023-02-05T22:46:49.521Z,21.15
2023-02-05T22:47:49.452Z,21.14
2023-02-05T22:48:50.032Z,21.15
2023-02-05T22:49:49.426Z,21.15
2023-02-05T22:50:49.432Z,21.14
2023-02-05T22:51:49.389Z,21.12
2023-02-05T22:52:49.393Z,21.14
2023-02-05T22:53:49.366Z,21.13
2023-02-05T22:54:49.400Z,21.14
2023-02-05T22:55:49.329Z,21.13
2023-02-05T22:56:49.297Z,21.13
2023-02-05T22:57:49.345Z,21.13
2023-02-05T22:58:49.270Z,21.14
2023-02-05T22:59:49.271Z,21.14
2023-02-05T23:00:49.343Z,21.13
2023-02-05T23:01:49.250Z,21.14
2023-02-05T23:02:49.200Z,21.12
2023-02-05T23:03:49.381Z,21.12
2023-02-05T23:04:49.177Z,21.12
2023-02-05T23:05:49.164Z,21.12
2023-02-05T23:06:49.133Z,21.14
2023-02-05T23:07:49.115Z,21.14
2023-02-05T23:08:49.107Z,21.14
2023-02-05T23:09:49.057Z,21.14
2023-02-05T23:10:49.060Z,21.15
2023-02-05T23:11:49.056Z,21.17
2023-02-05T23:12:49.016Z,21.20
2023-02-05T23:13:48.992Z,21.21
2023-02-05T23:14:48.988Z,21.21
2023-02-05T23:15:48.958Z,21.22
2023-02-05T23:16:48.995Z,21.24
2023-02-05T23:17:48.918Z,21.26
2023-02-05T23:18:48.909Z,21.31
2023-02-05T23:19:48.883Z,21.31
2023-02-05T23:20:48.869Z,21.30
2023-02-05T23:21:48.861Z,21.32
2023-02-05T23:22:48.876Z,21.32
2023-02-05T23:23:49.545Z,21.34
2023-02-05T23:24:48.804Z,21.36
2023-02-05T23:25:48.776Z,21.34
2023-02-05T23:26:48.787Z,21.35
2023-02-05T23:27:48.826Z,21.34
2023-02-05T23:28:48.757Z,21.35
2023-02-05T23:29:48.733Z,21.37
2023-02-05T23:30:48.779Z,21.37
2023-02-05T23:31:48.715Z,21.36
2023-02-05T23:32:48.704Z,21.37
2023-02-05T23:33:48.731Z,21.40
2023-02-05T23:34:48.646Z,21.38
2023-02-05T23:35:48.636Z,21.36
2023-02-05T23:36:48.616Z,21.36
2023-02-05T23:37:48.610Z,21.36
2023-02-05T23:38:48.590Z,21.34
2023-02-05T23:39:48.597Z,21.37
2023-02-05T23:40:48.589Z,21.36
2023-02-05T23:41:48.609Z,21.34
2023-02-05T23:42:48.546Z,21.36
2023-02-05T23:43:48.516Z,21.37
2023-02-05T23:44:48.504Z,21.36
2023-02-05T23:45:48.544Z,21.35
2023-02-05T23:46:49.081Z,21.35
2023-02-05T23:47:48.466Z,21.35
2023-02-05T23:48:48.451Z,21.36
2023-02-05T23:49:48.426Z,21.36
2023-02-05T23:50:48.427Z,21.34
2023-02-05T23:51:48.397Z,21.34
2023-02-05T23:52:48.379Z,21.33
2023-02-05T23:53:48.372Z,21.32
2023-02-05T23:54:48.369Z,21.32
2023-02-05T23:55:48.332Z,21.32
2023-02-05T23:56:48.334Z,21.30
2023-02-05T23:57:48.305Z,21.33
2023-02-05T23:58:48.274Z,21.32
2023-02-05T23:59:48.280Z,21.31
